Time;durP1;ratioP1;P1;durP2;ratioP2;P2;SDS_P1;SDS_P2;PMS_P1;PMS_P2;Temp;Humidity;BMP_temperature;BMP_pressure;BME280_temperature;BME280_humidity;BME280_pressure;Samples;Min_cycle;Max_cycle;Signal;HPM_P1;HPM_P2
2022/01/21 00:01:24;;;;;;;32.80;14.93;;;;;;;1.36;68.07;90531.28;5030820;28;20495;-61
2022/01/21 00:03:50;;;;;;;16.23;8.15;;;;;;;1.35;68.61;90533.13;5030947;28;20470;-61
2022/01/21 00:06:15;;;;;;;11.32;6.18;;;;;;;1.42;67.71;90519.72;5030493;28;20081;-62
2022/01/21 00:08:43;;;;;;;15.40;7.80;;;;;;;1.55;67.49;90529.69;5030789;28;20037;-61
2022/01/21 00:11:10;;;;;;;7.00;4.13;;;;;;;1.66;67.51;90531.25;5029458;28;20034;-61
2022/01/21 00:13:37;;;;;;;6.03;2.67;;;;;;;1.88;66.61;90528.31;5030670;28;20454;-61
2022/01/21 00:16:05;;;;;;;9.88;3.50;;;;;;;2.00;66.53;90539.31;5030669;28;20468;-61
2022/01/21 00:18:32;;;;;;;4.82;3.17;;;;;;;2.05;65.98;90539.31;5030659;28;20091;-61
2022/01/21 00:31:53;;;;;;;5.25;3.13;;;;;;;1.77;80.98;90558.25;5030405;28;20035;-61
2022/01/21 00:34:20;;;;;;;4.45;3.00;;;;;;;1.63;83.42;90557.22;5030312;28;20029;-61
2022/01/21 00:36:45;;;;;;;7.20;5.03;;;;;;;1.62;81.54;90563.50;5030648;28;20406;-61
2022/01/21 00:39:12;;;;;;;6.25;3.25;;;;;;;1.54;79.17;90553.53;5030392;28;20025;-61
2022/01/21 00:41:53;;;;;;;6.50;2.90;;;;;;;1.64;76.49;90570.06;5030404;28;20030;-62
2022/01/21 00:44:19;;;;;;;4.22;2.58;;;;;;;1.62;85.96;90568.75;5030302;28;20609;-61
2022/01/21 00:46:44;;;;;;;3.58;2.38;;;;;;;1.64;83.86;90570.06;5030252;28;20124;-61
2022/01/21 00:49:10;;;;;;;5.43;2.92;;;;;;;1.56;88.79;90578.44;5197774;22;20048;-61
2022/01/21 00:51:36;;;;;;;5.60;2.45;;;;;;;1.54;94.75;90579.75;5072842;28;20505;-61
2022/01/21 00:54:02;;;;;;;6.90;2.65;;;;;;;1.53;97.47;90583.44;5073763;28;20099;-62
2022/01/21 00:56:27;;;;;;;3.38;2.65;;;;;;;1.45;100.00;90582.91;5073693;28;20104;-59
2022/01/21 00:58:52;;;;;;;4.57;2.85;;;;;;;1.43;100.00;90579.78;5073623;28;20450;-61
2022/01/21 01:01:18;;;;;;;4.03;2.95;;;;;;;1.45;100.00;90572.44;5073697;28;20048;-59
2022/01/21 01:03:44;;;;;;;3.55;2.80;;;;;;;1.43;100.00;90571.13;5073536;28;20025;-59
2022/01/21 01:06:09;;;;;;;5.35;3.10;;;;;;;1.37;100.00;90574.78;5073526;28;20032;-61
2022/01/21 01:08:35;;;;;;;8.98;3.35;;;;;;;1.37;100.00;90570.31;5073399;28;20486;-59
2022/01/21 01:21:54;;;;;;;6.63;3.38;;;;;;;0.95;100.00;90562.69;5073357;28;20043;-61
2022/01/21 01:29:47;;;;;;;4.13;3.08;;;;;;;1.02;100.00;90578.16;5073339;28;20563;-60
2022/01/21 01:32:13;;;;;;;4.32;2.70;;;;;;;1.04;100.00;90586.53;5073027;28;20036;-60
2022/01/21 01:34:38;;;;;;;4.07;3.10;;;;;;;0.99;100.00;90602.25;5073089;28;20111;-60
2022/01/21 01:37:10;;;;;;;4.68;3.30;;;;;;;1.07;100.00;90593.88;5072968;28;20059;-60
2022/01/21 01:39:42;;;;;;;4.75;3.80;;;;;;;1.04;100.00;90594.38;5072745;28;20047;-60
2022/01/21 01:50:04;;;;;;;5.10;3.83;;;;;;;0.77;100.00;90569.19;5072417;28;20437;-60
2022/01/21 01:52:31;;;;;;;7.97;4.63;;;;;;;0.71;100.00;90572.84;5072573;28;20032;-60
2022/01/21 01:54:57;;;;;;;5.90;4.47;;;;;;;0.70;100.00;90568.66;5072621;28;20063;-60
2022/01/21 01:57:23;;;;;;;7.47;5.50;;;;;;;0.80;100.00;90566.06;5072556;28;20096;-61
2022/01/21 01:59:49;;;;;;;7.93;6.13;;;;;;;0.84;100.00;90568.97;5072272;28;20036;-61
2022/01/21 02:02:17;;;;;;;8.65;5.68;;;;;;;0.84;100.00;90567.13;5071877;28;20501;-60
2022/01/21 02:04:43;;;;;;;7.82;5.97;;;;;;;0.85;100.00;90563.47;5072365;28;20029;-60
2022/01/21 02:07:10;;;;;;;7.15;5.80;;;;;;;0.82;100.00;90574.44;5072296;28;20048;-60
2022/01/21 02:09:36;;;;;;;5.88;5.20;;;;;;;0.85;100.00;90573.94;5072203;28;20461;-61
2022/01/21 02:12:03;;;;;;;8.38;5.47;;;;;;;0.95;100.00;90573.19;5072288;28;20024;-61
2022/01/21 02:14:33;;;;;;;8.00;5.68;;;;;;;1.11;100.00;90566.91;5072111;28;20115;-61
2022/01/21 02:22:22;;;;;;;11.05;7.13;;;;;;;0.91;100.00;90532.81;5072308;28;20238;-60
2022/01/21 02:27:13;;;;;;;12.60;8.15;;;;;;;0.88;100.00;90535.97;5072266;28;20120;-60
2022/01/21 02:29:51;;;;;;;8.23;5.20;;;;;;;0.72;100.00;90539.59;5071704;28;20111;-61
2022/01/21 02:32:18;;;;;;;8.35;5.07;;;;;;;0.69;100.00;90527.81;5071652;28;20071;-61
2022/01/21 02:34:45;;;;;;;9.18;5.50;;;;;;;0.58;100.00;90520.97;5071673;28;20486;-60
2022/01/21 02:37:15;;;;;;;10.43;6.07;;;;;;;0.48;100.00;90523.59;5071546;28;20107;-60
2022/01/21 02:39:41;;;;;;;9.70;5.15;;;;;;;0.42;100.00;90519.38;5071518;28;20413;-61
2022/01/21 02:42:07;;;;;;;10.10;5.32;;;;;;;0.29;100.00;90515.41;5071708;28;20058;-60
2022/01/21 02:44:33;;;;;;;7.32;4.78;;;;;;;0.20;100.00;90509.91;5071480;28;20040;-60
2022/01/21 02:47:01;;;;;;;11.30;5.40;;;;;;;0.18;100.00;90509.38;5071415;28;20106;-60
2022/01/21 02:49:27;;;;;;;7.72;4.30;;;;;;;0.20;100.00;90530.03;5071250;28;20162;-60
2022/01/21 02:51:56;;;;;;;9.13;4.40;;;;;;;0.14;100.00;90521.38;5071366;28;20529;-60
2022/01/21 02:54:22;;;;;;;10.05;4.85;;;;;;;0.11;100.00;90534.97;5071354;28;20081;-61
2022/01/21 02:56:48;;;;;;;13.23;4.57;;;;;;;0.03;100.00;90526.84;5071494;28;20016;-61
2022/01/21 02:59:14;;;;;;;11.38;4.47;;;;;;;0.14;100.00;90534.44;5071249;28;20060;-61
2022/01/21 03:01:42;;;;;;;10.18;5.50;;;;;;;0.16;100.00;90534.19;5071654;28;20454;-60
2022/01/21 03:04:14;;;;;;;8.68;4.90;;;;;;;0.14;100.00;90529.22;5071218;28;20366;-60
2022/01/21 03:06:40;;;;;;;10.48;5.10;;;;;;;0.06;100.00;90542.00;5071518;28;20030;-61
2022/01/21 03:09:08;;;;;;;12.23;5.28;;;;;;;0.01;100.00;90542.00;5071174;28;20107;-60
2022/01/21 03:11:33;;;;;;;12.38;4.53;;;;;;;0.03;100.00;90534.66;5071465;28;20051;-61
2022/01/21 03:13:59;;;;;;;7.85;4.95;;;;;;;-0.06;100.00;90536.97;5070432;28;20478;-61
2022/01/21 03:16:25;;;;;;;11.18;5.38;;;;;;;-0.12;100.00;90535.38;5071153;28;20024;-60
2022/01/21 03:18:52;;;;;;;10.98;5.55;;;;;;;-0.14;100.00;90540.09;5071044;28;20033;-60
2022/01/21 03:21:17;;;;;;;13.70;5.10;;;;;;;-0.18;100.00;90537.16;5071093;28;20490;-60
2022/01/21 03:23:48;;;;;;;9.15;5.47;;;;;;;-0.13;100.00;90537.22;5071299;28;20119;-61
2022/01/21 03:26:18;;;;;;;15.27;5.57;;;;;;;-0.14;100.00;90527.81;5070924;28;20486;-60
2022/01/21 03:28:46;;;;;;;7.53;4.70;;;;;;;-0.06;100.00;90526.50;5071003;28;20033;-61
2022/01/21 03:31:12;;;;;;;7.32;5.07;;;;;;;-0.07;100.00;90530.16;5070840;28;20055;-61
2022/01/21 03:33:37;;;;;;;7.13;4.90;;;;;;;-0.12;100.00;90519.69;5070971;28;20438;-60
2022/01/21 03:36:03;;;;;;;10.80;5.47;;;;;;;-0.11;100.00;90516.81;5071168;28;20032;-61
2022/01/21 03:38:29;;;;;;;12.75;6.22;;;;;;;-0.03;100.00;90505.88;5070773;28;20040;-60
2022/01/21 03:40:55;;;;;;;10.57;6.63;;;;;;;-0.02;100.00;90512.66;5071193;28;20029;-60
2022/01/21 03:43:22;;;;;;;11.65;6.70;;;;;;;-0.01;100.00;90523.91;5070909;28;20394;-60
2022/01/21 03:45:48;;;;;;;10.10;6.20;;;;;;;-0.07;100.00;90520.50;5070818;28;20049;-60
2022/01/21 03:48:15;;;;;;;9.68;6.13;;;;;;;-0.03;100.00;90521.56;5070664;28;20040;-60
2022/01/21 03:50:41;;;;;;;7.82;5.57;;;;;;;0.02;100.00;90512.19;5070601;28;20043;-61
2022/01/21 03:53:07;;;;;;;8.02;5.47;;;;;;;0.02;100.00;90517.41;5070747;28;20028;-60
2022/01/21 03:55:34;;;;;;;7.97;5.90;;;;;;;0.01;100.00;90515.84;5070837;28;20044;-60
2022/01/21 03:58:00;;;;;;;13.52;5.38;;;;;;;0.02;100.00;90518.19;5070498;28;20036;-60
2022/01/21 04:00:53;;;;;;;9.48;5.25;;;;;;;0.05;100.00;90527.34;5070639;28;20036;-60
2022/01/21 04:03:20;;;;;;;10.15;5.93;;;;;;;-0.01;100.00;90524.69;5070031;28;20107;-60
2022/01/21 04:05:46;;;;;;;11.15;5.88;;;;;;;0.02;100.00;90528.66;5070654;28;20063;-61
2022/01/21 04:08:12;;;;;;;10.07;5.45;;;;;;;0.07;100.00;90527.88;5070523;28;20025;-61
2022/01/21 04:10:42;;;;;;;8.73;5.55;;;;;;;0.11;100.00;90534.97;5070875;28;20036;-60
2022/01/21 04:13:15;;;;;;;11.35;6.22;;;;;;;0.21;100.00;90537.63;5070542;28;20065;-61
2022/01/21 04:15:43;;;;;;;11.73;6.43;;;;;;;0.16;100.00;90544.66;5070760;28;20055;-60
2022/01/21 04:18:09;;;;;;;11.55;7.25;;;;;;;0.15;100.00;90548.31;5070384;28;20362;-60
2022/01/21 04:20:35;;;;;;;11.05;7.78;;;;;;;0.23;100.00;90547.81;5070774;28;20033;-60
2022/01/21 04:23:01;;;;;;;13.63;6.43;;;;;;;0.09;100.00;90544.09;5070472;28;20490;-60
2022/01/21 04:25:27;;;;;;;12.57;7.85;;;;;;;0.19;100.00;90563.25;5073153;28;20063;-60
2022/01/21 04:27:52;;;;;;;9.77;7.07;;;;;;;0.10;100.00;90556.91;5074327;28;20374;-61
2022/01/21 04:30:18;;;;;;;10.10;6.22;;;;;;;0.05;100.00;90574.44;5074044;28;20512;-61
2022/01/21 04:32:43;;;;;;;8.77;7.82;;;;;;;-0.10;100.00;90575.13;5074154;28;20028;-61
2022/01/21 04:35:09;;;;;;;6.78;6.05;;;;;;;-0.17;100.00;90582.38;5074077;28;20493;-61
2022/01/21 04:37:38;;;;;;;4.85;4.35;;;;;;;-0.21;100.00;90589.16;5074357;28;20032;-61
2022/01/21 04:40:09;;;;;;;5.43;4.70;;;;;;;-0.24;100.00;90598.31;5074252;28;20070;-61
2022/01/21 04:48:04;;;;;;;30.83;19.70;;;;;;;-0.25;100.00;90643.78;5074143;28;20158;-61
2022/01/21 04:50:39;;;;;;;12.10;9.85;;;;;;;-0.26;100.00;90638.81;5073623;28;20041;-61
2022/01/21 04:53:04;;;;;;;7.93;6.65;;;;;;;-0.31;100.00;90644.78;5073900;28;20028;-60
2022/01/21 04:55:30;;;;;;;7.75;5.75;;;;;;;-0.39;100.00;90653.06;5073680;28;20024;-61
2022/01/21 04:57:56;;;;;;;9.65;8.10;;;;;;;-0.47;100.00;90649.13;5073549;28;20418;-60
2022/01/21 05:00:22;;;;;;;17.95;12.27;;;;;;;-0.48;100.00;90660.56;5073571;28;20033;-61
2022/01/21 05:02:47;;;;;;;8.82;6.47;;;;;;;-0.56;100.00;90668.09;5073555;28;20036;-60
2022/01/21 05:05:13;;;;;;;3.42;2.70;;;;;;;-0.56;100.00;90671.50;5073562;28;20039;-61
2022/01/21 05:07:40;;;;;;;2.17;1.92;;;;;;;-0.63;100.00;90682.16;5073556;28;20039;-60
2022/01/21 05:10:06;;;;;;;2.53;2.00;;;;;;;-0.64;100.00;90690.22;5073293;28;20121;-60
2022/01/21 05:12:32;;;;;;;6.93;4.20;;;;;;;-0.58;100.00;90691.06;5073434;28;20150;-60
2022/01/21 05:17:25;;;;;;;9.70;6.15;;;;;;;-0.57;100.00;90682.97;5073600;28;20138;-61
2022/01/21 05:19:52;;;;;;;20.75;13.48;;;;;;;-0.76;100.00;90694.81;5073381;28;20032;-60
2022/01/21 05:22:17;;;;;;;16.25;10.15;;;;;;;-0.69;100.00;90700.63;5073222;28;20111;-60
2022/01/21 05:24:43;;;;;;;25.52;14.13;;;;;;;-0.62;100.00;90709.84;5073236;28;20561;-61
2022/01/21 05:27:11;;;;;;;20.98;12.35;;;;;;;-0.59;100.00;90713.78;5073151;28;20493;-61
2022/01/21 05:29:37;;;;;;;13.45;8.75;;;;;;;-0.77;100.00;90714.13;5073069;28;20391;-60
2022/01/21 05:32:04;;;;;;;12.75;6.85;;;;;;;-0.85;100.00;90711.94;5073059;28;20039;-61
2022/01/21 05:34:30;;;;;;;6.72;4.05;;;;;;;-0.88;100.00;90722.88;5072974;28;20032;-61
2022/01/21 05:36:55;;;;;;;2.10;1.92;;;;;;;-1.04;100.00;90717.50;5072366;28;20170;-61
2022/01/21 05:39:22;;;;;;;2.30;2.10;;;;;;;-1.11;100.00;90711.66;5072958;28;20089;-61
2022/01/21 05:41:50;;;;;;;3.80;1.80;;;;;;;-1.14;100.00;90709.53;5073128;28;20103;-61
2022/01/21 05:46:57;;;;;;;3.50;2.83;;;;;;;-1.29;100.00;90725.81;5072998;28;20512;-61
2022/01/21 05:49:24;;;;;;;2.10;1.90;;;;;;;-1.32;100.00;90723.69;5072492;28;20037;-61
2022/01/21 05:51:52;;;;;;;1.70;1.60;;;;;;;-1.39;100.00;90719.69;5072613;28;20032;-61
2022/01/21 05:54:24;;;;;;;1.20;1.10;;;;;;;-1.55;100.00;90742.19;5072538;28;20414;-60
2022/01/21 05:56:50;;;;;;;1.48;1.38;;;;;;;-1.61;100.00;90745.72;5072420;28;20486;-60
2022/01/21 05:59:16;;;;;;;4.45;3.28;;;;;;;-1.68;100.00;90745.91;5072411;28;20052;-60
2022/01/21 06:01:42;;;;;;;3.85;1.80;;;;;;;-1.72;100.00;90744.81;5072545;28;20486;-60
2022/01/21 06:04:08;;;;;;;14.55;8.68;;;;;;;-1.68;100.00;90732.88;5072461;28;20166;-60
2022/01/21 06:06:33;;;;;;;9.25;6.03;;;;;;;-1.71;100.00;90729.97;5072422;28;20480;-60
2022/01/21 06:08:59;;;;;;;6.43;4.50;;;;;;;-1.65;100.00;90747.25;5072282;28;20024;-60
2022/01/21 06:11:25;;;;;;;11.35;6.88;;;;;;;-1.66;100.00;90754.28;5054346;28;20131;-61
2022/01/21 06:13:51;;;;;;;9.02;5.85;;;;;;;-1.66;100.00;90759.50;5072274;28;20025;-60
2022/01/21 06:16:19;;;;;;;13.70;4.90;;;;;;;-1.71;100.00;90759.44;5072033;28;20481;-61
2022/01/21 06:18:45;;;;;;;5.28;3.97;;;;;;;-1.71;100.00;90766.47;5072375;28;20047;-61
2022/01/21 06:21:12;;;;;;;8.45;5.13;;;;;;;-1.66;100.00;90775.13;5072166;28;20039;-61
2022/01/21 06:23:37;;;;;;;10.18;4.45;;;;;;;-1.64;100.00;90780.13;5072068;28;20033;-61
2022/01/21 06:26:03;;;;;;;11.98;8.18;;;;;;;-1.61;100.00;90787.44;5072075;28;20025;-61
2022/01/21 06:28:28;;;;;;;11.18;7.05;;;;;;;-1.55;100.00;90787.31;5071881;28;20442;-61
2022/01/21 06:30:54;;;;;;;15.18;7.90;;;;;;;-1.49;100.00;90795.19;5071924;28;20416;-61
2022/01/21 06:33:23;;;;;;;13.82;7.55;;;;;;;-1.51;100.00;90793.63;5071700;28;20081;-61
2022/01/21 06:35:52;;;;;;;7.05;4.53;;;;;;;-1.67;100.00;90759.72;5071352;28;20028;-61
2022/01/21 06:38:19;;;;;;;5.93;3.90;;;;;;;-1.68;100.00;90790.25;5069363;28;20020;-62
2022/01/21 06:40:46;;;;;;;11.55;6.60;;;;;;;-1.79;100.00;90801.53;5070686;28;20048;-61
2022/01/21 06:43:12;;;;;;;9.35;5.25;;;;;;;-1.78;100.00;90805.72;5071037;28;20100;-61
2022/01/21 06:45:38;;;;;;;11.05;7.80;;;;;;;-1.85;100.00;90807.72;5070825;28;20116;-61
2022/01/21 06:48:04;;;;;;;7.53;2.40;;;;;;;-1.78;100.00;90813.53;5070735;28;20092;-61
2022/01/21 06:50:32;;;;;;;7.55;3.45;;;;;;;-1.74;100.00;90813.84;5052528;28;20062;-62
2022/01/21 06:52:58;;;;;;;8.90;2.90;;;;;;;-1.73;100.00;90816.25;5070345;28;20104;-62
2022/01/21 06:55:23;;;;;;;6.38;2.40;;;;;;;-1.99;100.00;90825.47;5070421;28;20036;-61
2022/01/21 06:57:49;;;;;;;10.90;5.72;;;;;;;-1.97;100.00;90826.03;5070840;28;20020;-61
2022/01/21 07:00:18;;;;;;;40.03;17.75;;;;;;;-1.87;100.00;90826.19;5070828;28;20117;-61
2022/01/21 07:02:46;;;;;;;35.67;17.92;;;;;;;-1.79;100.00;90827.59;5070903;28;20032;-61
2022/01/21 07:05:12;;;;;;;45.67;17.42;;;;;;;-1.72;100.00;90836.09;5071222;28;20059;-62
2022/01/21 07:07:37;;;;;;;105.93;37.00;;;;;;;-1.94;100.00;90840.41;5071170;28;20032;-61
2022/01/21 07:10:06;;;;;;;6.72;4.10;;;;;;;-2.04;100.00;90846.25;5063276;28;20089;-61
2022/01/21 07:12:32;;;;;;;13.60;7.85;;;;;;;-2.15;100.00;90845.28;5070901;28;20078;-61
2022/01/21 07:14:58;;;;;;;18.70;8.75;;;;;;;-2.20;100.00;90837.38;5052840;28;20111;-61
2022/01/21 07:17:25;;;;;;;51.17;22.83;;;;;;;-2.07;100.00;90840.69;5070582;28;20502;-61
2022/01/21 07:19:50;;;;;;;20.27;9.18;;;;;;;-2.09;100.00;90858.38;5070538;28;20025;-61
2022/01/21 07:22:16;;;;;;;63.20;28.15;;;;;;;-2.14;100.00;90870.31;5070747;28;20040;-61
2022/01/21 07:24:41;;;;;;;46.28;22.52;;;;;;;-2.06;100.00;90887.38;5070364;28;20059;-61
2022/01/21 07:27:07;;;;;;;27.77;12.25;;;;;;;-2.16;100.00;90887.22;5070774;28;20035;-61
2022/01/21 07:29:33;;;;;;;92.47;34.17;;;;;;;-2.13;100.00;90889.34;5070620;28;20032;-61
2022/01/21 07:31:59;;;;;;;20.90;10.50;;;;;;;-2.08;100.00;90880.81;5070137;28;20470;-62
2022/01/21 07:34:26;;;;;;;7.43;4.70;;;;;;;-2.62;100.00;90895.97;5069232;28;20077;-61
2022/01/21 07:36:53;;;;;;;5.88;4.18;;;;;;;-2.72;100.00;90892.13;5052405;28;20489;-61
2022/01/21 07:39:18;;;;;;;11.38;6.45;;;;;;;-2.52;100.00;90910.00;5070144;28;20115;-62
2022/01/21 07:41:44;;;;;;;10.10;6.28;;;;;;;-2.59;100.00;90916.34;5070725;28;20107;-61
2022/01/21 07:44:12;;;;;;;36.75;21.27;;;;;;;-2.74;100.00;90920.22;5070630;28;20490;-62
2022/01/21 07:46:37;;;;;;;26.75;14.30;;;;;;;-2.77;100.00;90912.84;5070514;28;20055;-61
2022/01/21 07:49:03;;;;;;;24.25;8.70;;;;;;;-2.84;100.00;90920.00;5070326;28;20044;-61
2022/01/21 07:51:29;;;;;;;7.13;3.80;;;;;;;-2.78;100.00;90916.47;5070445;28;20123;-61
2022/01/21 07:53:54;;;;;;;12.75;5.95;;;;;;;-2.71;100.00;90924.16;5070078;28;20413;-62
2022/01/21 07:56:20;;;;;;;8.05;4.03;;;;;;;-2.58;100.00;90938.75;5070470;28;20090;-60
2022/01/21 07:58:45;;;;;;;4.75;3.38;;;;;;;-2.75;100.00;90936.84;5070336;28;20032;-61
2022/01/21 08:01:11;;;;;;;17.40;8.43;;;;;;;-2.74;100.00;90935.81;5074415;28;20041;-61
2022/01/21 08:03:36;;;;;;;16.83;8.48;;;;;;;-2.51;100.00;90942.81;5074091;28;20032;-62
2022/01/21 08:06:02;;;;;;;17.65;10.30;;;;;;;-2.48;100.00;90933.75;5074240;28;20055;-63
2022/01/21 08:08:30;;;;;;;7.30;5.43;;;;;;;-2.61;100.00;90949.63;5073343;28;20752;-61
2022/01/21 08:10:57;;;;;;;30.15;16.80;;;;;;;-2.32;100.00;90953.88;5073960;28;20076;-61
2022/01/21 08:13:23;;;;;;;11.88;5.93;;;;;;;-2.28;100.00;90954.19;5074367;28;20036;-62
2022/01/21 08:15:48;;;;;;;21.77;9.50;;;;;;;-2.05;100.00;90954.13;5074305;28;20524;-62
2022/01/21 08:18:15;;;;;;;23.02;9.13;;;;;;;-2.23;100.00;90962.09;5073873;28;20548;-61
2022/01/21 08:20:44;;;;;;;9.52;5.18;;;;;;;-2.24;100.00;90961.31;5073804;28;20036;-62
2022/01/21 08:23:11;;;;;;;13.75;8.00;;;;;;;-2.23;100.00;90962.09;5073926;28;20048;-63
2022/01/21 08:25:37;;;;;;;9.18;6.10;;;;;;;-2.64;100.00;90971.72;5072921;28;20512;-61
2022/01/21 08:28:02;;;;;;;16.27;10.07;;;;;;;-2.59;100.00;90973.63;5074045;28;20033;-61
2022/01/21 08:30:28;;;;;;;10.20;6.07;;;;;;;-2.75;100.00;90962.09;5073683;28;20042;-62
2022/01/21 08:32:54;;;;;;;28.98;15.90;;;;;;;-2.78;100.00;90976.34;5073603;28;20101;-61
2022/01/21 08:35:20;;;;;;;10.85;6.72;;;;;;;-2.58;100.00;90986.41;5055578;28;20448;-61
2022/01/21 08:37:45;;;;;;;7.13;4.82;;;;;;;-2.98;100.00;90991.53;5073535;28;20033;-61
2022/01/21 08:40:11;;;;;;;20.35;11.75;;;;;;;-2.88;100.00;90996.94;5072814;28;20032;-61
2022/01/21 08:42:37;;;;;;;26.13;12.55;;;;;;;-2.96;100.00;90989.50;5073256;28;20429;-61
2022/01/21 08:45:04;;;;;;;20.35;10.82;;;;;;;-2.69;100.00;90997.63;5072844;28;20032;-62
2022/01/21 08:47:29;;;;;;;24.10;12.38;;;;;;;-2.75;100.00;90990.72;5073245;28;20494;-62
2022/01/21 08:49:59;;;;;;;36.90;18.27;;;;;;;-2.60;100.00;90988.44;5073372;28;20074;-62
2022/01/21 08:52:27;;;;;;;30.27;17.38;;;;;;;-2.64;100.00;90992.53;5073616;28;20036;-62
2022/01/21 08:54:53;;;;;;;40.45;22.58;;;;;;;-2.52;100.00;90990.72;5072763;28;20087;-62
2022/01/21 08:57:19;;;;;;;39.88;21.33;;;;;;;-2.48;100.00;90978.03;5073698;28;20151;-62
2022/01/21 08:59:46;;;;;;;31.63;16.75;;;;;;;-2.32;100.00;90973.91;5073169;28;20040;-62
2022/01/21 09:02:12;;;;;;;107.07;51.05;;;;;;;-2.10;100.00;90977.47;5073253;28;20409;-62
2022/01/21 09:04:37;;;;;;;31.10;17.63;;;;;;;-2.13;100.00;90981.34;5073221;28;20056;-62
2022/01/21 09:07:04;;;;;;;27.55;16.33;;;;;;;-1.58;100.00;90980.81;5072935;28;20036;-62
2022/01/21 09:09:29;;;;;;;30.95;16.17;;;;;;;-1.56;100.00;90994.41;5072528;28;20058;-62
2022/01/21 09:11:59;;;;;;;48.45;26.85;;;;;;;-1.55;100.00;90992.59;5071110;28;20410;-62
2022/01/21 09:14:30;;;;;;;48.25;24.58;;;;;;;-1.39;100.00;90994.41;5069930;28;20037;-62
2022/01/21 09:16:56;;;;;;;65.50;32.58;;;;;;;-1.39;100.00;90988.41;5072608;28;20071;-61
2022/01/21 09:19:23;;;;;;;42.95;23.35;;;;;;;-1.25;100.00;90997.53;5072868;28;20565;-62
2022/01/21 09:21:51;;;;;;;47.40;25.63;;;;;;;-1.28;100.00;90982.31;5072878;28;20067;-62
2022/01/21 09:24:18;;;;;;;32.00;18.27;;;;;;;-1.21;100.00;90980.38;5071845;28;20074;-62
2022/01/21 09:26:44;;;;;;;26.38;14.85;;;;;;;-1.39;100.00;90983.19;5072042;28;20122;-63
2022/01/21 09:29:09;;;;;;;14.85;8.75;;;;;;;-1.66;100.00;90989.00;5072171;28;20020;-62
2022/01/21 09:31:35;;;;;;;9.45;6.20;;;;;;;-1.51;100.00;90981.44;5072698;28;20040;-61
2022/01/21 09:34:01;;;;;;;7.28;4.65;;;;;;;-1.19;100.00;90975.69;5072674;28;20037;-62
2022/01/21 09:36:26;;;;;;;12.27;5.53;;;;;;;-0.95;100.00;90976.31;5072759;28;20040;-62
2022/01/21 09:38:52;;;;;;;3.92;3.00;;;;;;;-0.97;100.00;90970.53;5072063;28;20037;-61
2022/01/21 09:41:18;;;;;;;10.73;5.95;;;;;;;-0.78;100.00;90963.28;5072510;28;20040;-62
2022/01/21 09:43:46;;;;;;;6.72;4.65;;;;;;;-0.48;100.00;90957.66;5072651;28;20036;-62
2022/01/21 09:46:13;;;;;;;5.30;4.00;;;;;;;-0.71;100.00;90950.81;5072404;28;20039;-62
2022/01/21 09:48:51;;;;;;;6.00;4.05;;;;;;;-0.32;100.00;90949.78;5071713;28;20139;-62
2022/01/21 09:51:17;;;;;;;7.38;4.18;;;;;;;-0.74;96.84;90943.47;5070790;28;20152;-62
2022/01/21 09:53:43;;;;;;;28.08;14.00;;;;;;;-0.26;96.89;90939.38;5071648;28;20806;-62
2022/01/21 09:56:09;;;;;;;24.50;14.35;;;;;;;-0.38;94.49;90935.06;5071553;28;20044;-62
2022/01/21 09:58:35;;;;;;;6.22;4.00;;;;;;;-0.34;89.34;90948.44;5071134;28;20410;-62
2022/01/21 10:01:08;;;;;;;7.50;5.32;;;;;;;-0.14;87.92;90932.22;5071140;28;20040;-62
2022/01/21 10:03:34;;;;;;;9.60;6.45;;;;;;;0.10;83.35;90933.53;5070910;28;20054;-62
2022/01/21 10:06:02;;;;;;;5.85;4.32;;;;;;;0.19;82.20;90926.81;5071751;28;20512;-62
2022/01/21 10:08:29;;;;;;;11.63;7.32;;;;;;;0.07;85.26;90931.41;5071659;28;20048;-63
2022/01/21 10:10:54;;;;;;;12.70;5.75;;;;;;;0.09;82.77;90934.56;5072199;28;20082;-62
2022/01/21 10:13:21;;;;;;;40.33;23.40;;;;;;;-0.31;87.80;90938.31;5072145;28;20060;-63
2022/01/21 10:15:48;;;;;;;7.35;3.67;;;;;;;-0.02;92.35;90935.47;5072043;28;20191;-63
2022/01/21 10:18:19;;;;;;;8.02;4.28;;;;;;;0.33;87.78;90932.47;5071940;28;20127;-62
2022/01/21 10:21:11;;;;;;;26.38;15.30;;;;;;;0.19;83.55;90937.28;5072095;28;20047;-64
2022/01/21 10:23:39;;;;;;;15.15;8.20;;;;;;;0.25;83.71;90932.91;5071244;28;20482;-63
2022/01/21 10:26:17;;;;;;;7.80;5.40;;;;;;;0.22;83.83;90930.78;5071918;28;20040;-66
2022/01/21 10:28:44;;;;;;;4.13;2.90;;;;;;;0.37;83.75;90923.09;5066485;28;20040;-64
2022/01/21 10:31:12;;;;;;;9.55;4.93;;;;;;;0.53;81.84;90924.81;5065141;28;20405;-63
2022/01/21 10:33:43;;;;;;;8.45;5.18;;;;;;;0.57;80.27;90932.94;5070591;28;20037;-63
2022/01/21 10:36:14;;;;;;;12.70;7.30;;;;;;;0.54;80.38;90917.75;5053119;28;20524;-66
2022/01/21 10:38:46;;;;;;;18.88;10.40;;;;;;;0.68;79.17;90912.88;5070627;28;20551;-63
2022/01/21 10:41:14;;;;;;;4.20;2.85;;;;;;;0.39;78.99;90921.00;5071422;28;20170;-63
2022/01/21 10:43:41;;;;;;;15.57;9.98;;;;;;;0.26;81.87;90918.78;5071009;28;20055;-66
2022/01/21 10:46:07;;;;;;;8.88;5.97;;;;;;;0.24;82.01;90911.19;5071162;28;20037;-64
2022/01/21 10:49:09;;;;;;;6.40;4.85;;;;;;;0.09;81.67;90905.78;5070170;28;20056;-65
2022/01/21 10:51:40;;;;;;;15.23;8.32;;;;;;;0.00;82.30;90904.66;5070822;28;20037;-63
2022/01/21 10:54:18;;;;;;;15.35;10.93;;;;;;;0.27;83.70;90896.81;5070642;28;20127;-64
2022/01/21 10:57:04;;;;;;;12.55;7.07;;;;;;;0.45;81.34;90888.59;5070828;28;20060;-64
2022/01/21 10:59:51;;;;;;;15.85;5.97;;;;;;;0.24;80.13;90881.63;5070139;28;20036;-64
2022/01/21 11:02:33;;;;;;;15.63;7.13;;;;;;;0.15;79.56;90875.22;5070306;28;20398;-64
2022/01/21 11:05:01;;;;;;;11.73;6.57;;;;;;;0.24;80.19;90890.25;5069416;28;20048;-64
2022/01/21 11:07:45;;;;;;;21.50;10.80;;;;;;;0.72;77.92;90878.09;5069820;28;20040;-65
2022/01/21 11:10:36;;;;;;;10.48;5.50;;;;;;;0.57;74.94;90852.59;5070790;28;20037;-65
2022/01/21 11:13:10;;;;;;;12.23;5.72;;;;;;;0.67;73.38;90872.84;5070402;28;20037;-64
2022/01/21 11:15:50;;;;;;;7.20;4.18;;;;;;;0.55;70.85;90873.00;5070706;28;20035;-64
2022/01/21 11:18:18;;;;;;;9.27;4.97;;;;;;;0.45;71.88;90862.44;5070603;28;20055;-65
2022/01/21 11:20:49;;;;;;;16.05;9.25;;;;;;;0.83;71.54;90874.53;5070469;28;20071;-66
2022/01/21 11:23:17;;;;;;;6.95;3.33;;;;;;;0.21;69.83;90866.41;5070424;28;20438;-66
2022/01/21 11:25:55;;;;;;;4.30;2.75;;;;;;;0.05;71.35;90870.72;5070916;28;20052;-64
2022/01/21 11:28:22;;;;;;;8.02;5.43;;;;;;;0.08;72.58;90869.44;5070663;28;20036;-64
2022/01/21 11:30:50;;;;;;;7.95;5.60;;;;;;;-0.15;70.09;90854.81;5071036;28;20067;-64
2022/01/21 11:33:16;;;;;;;12.32;4.60;;;;;;;-0.33;69.17;90855.91;5070642;28;20040;-66
2022/01/21 11:35:41;;;;;;;9.95;4.78;;;;;;;-0.26;70.37;90859.16;5052009;28;20085;-67
2022/01/21 11:38:12;;;;;;;4.78;3.10;;;;;;;-0.05;69.86;90862.75;5069350;28;20044;-67
2022/01/21 11:40:39;;;;;;;100.72;48.63;;;;;;;0.31;73.50;90850.78;5051737;28;20464;-68
2022/01/21 11:43:07;;;;;;;8.38;5.18;;;;;;;0.32;72.35;90849.78;5070710;28;20047;-68
2022/01/21 11:46:05;;;;;;;12.45;6.70;;;;;;;0.14;72.15;90858.75;5070930;28;20032;-69
2022/01/21 11:51:00;;;;;;;14.02;6.35;;;;;;;0.06;72.50;90853.97;5069601;28;20036;-68
2022/01/21 11:53:52;;;;;;;4.50;3.03;;;;;;;0.08;73.00;90853.72;5070156;28;20116;-68
2022/01/21 11:56:34;;;;;;;22.95;11.05;;;;;;;0.52;71.41;90857.00;5052206;28;20037;-67
2022/01/21 11:59:23;;;;;;;12.45;7.03;;;;;;;0.71;70.35;90852.16;5056051;28;20115;-69
2022/01/21 12:01:50;;;;;;;11.13;5.40;;;;;;;0.65;71.08;90846.13;5069259;28;20048;-69
2022/01/21 12:04:36;;;;;;;3.25;2.45;;;;;;;0.50;72.49;90864.31;5069390;28;20553;-70
2022/01/21 12:07:02;;;;;;;9.27;5.78;;;;;;;0.28;73.01;90854.69;5069397;28;20064;-70
2022/01/21 12:10:04;;;;;;;11.05;6.13;;;;;;;0.52;74.01;90851.78;5069747;28;20045;-69
2022/01/21 12:13:04;;;;;;;25.45;10.52;;;;;;;0.47;72.68;90854.31;5068806;28;20040;-69
2022/01/21 12:16:25;;;;;;;23.88;10.23;;;;;;;0.39;73.50;90855.59;5066284;28;20193;-69
2022/01/21 12:21:36;;;;;;;10.52;5.22;;;;;;;0.18;76.86;90852.00;5070225;28;20055;-70
2022/01/21 12:24:03;;;;;;;12.90;5.13;;;;;;;0.12;78.00;90846.97;5070309;28;20070;-70
2022/01/21 12:26:30;;;;;;;12.60;5.60;;;;;;;-0.08;77.76;90852.78;5069876;28;20097;-69
2022/01/21 12:28:57;;;;;;;1.80;1.42;;;;;;;-0.07;78.81;90843.91;5060042;28;20064;-70